
Distance (Route):
Temperature : -58.4°C
Humidity : 26.4%
Pressure : 0hPa| Receiver | Frames | First received | Last received |
|---|---|---|---|
| LZ4TU-5 | 81 | 2026-09-04 23:39:56 | 2026-09-05 00:44:31 |
| Receiver | Date | Latitude | Longitude | Direction | Speed | Altitude | Climb | Temperature | Humidity | Pressure | Voltage | Killtimer | Uptime | BKT | XDATA |
|---|---|---|---|---|---|---|---|---|---|---|---|---|---|---|---|
| LZ4TU-5 | 2026-09-05 00:44:31 | 43.07094 | 20.18141 | 149° | 46km/h | 12552m | -22.6m/s | -58.4°C | 26.4% | 0hPa | 0V | 00:00:00 | 00:00:00 | 00:00:00 | |
| LZ4TU-5 | 2026-09-05 00:44:26 | 43.07145 | 20.18103 | 150° | 47km/h | 12671m | -22.7m/s | -59.1°C | 25.1% | 0hPa | 0V | 00:00:00 | 00:00:00 | 00:00:00 | |
| LZ4TU-5 | 2026-09-05 00:40:51 | 43.08090 | 20.16616 | 73° | 20km/h | 18227m | -31.4m/s | -58.9°C | 0.0% | 0hPa | 0V | 00:00:00 | 00:00:00 | 00:00:00 | |
| LZ4TU-5 | 2026-09-05 00:40:46 | 43.08082 | 20.16571 | 86° | 29km/h | 18386m | -31.9m/s | -58.3°C | 0.0% | 0hPa | 0V | 00:00:00 | 00:00:00 | 00:00:00 | |
| LZ4TU-5 | 2026-09-05 00:38:55 | 43.08095 | 20.16181 | 20° | 15km/h | 22442m | -42.3m/s | -54.2°C | 0.0% | 0hPa | 0V | 00:00:00 | 00:00:00 | 00:00:00 | |
| LZ4TU-5 | 2026-09-05 00:38:50 | 43.08084 | 20.16173 | 53° | 7km/h | 22659m | -43.8m/s | -53.7°C | 0% | 0hPa | 0V | 00:00:00 | 00:00:00 | 00:00:00 | |
| LZ4TU-5 | 2026-09-05 00:38:41 | 43.08065 | 20.16169 | 2° | 5km/h | 23055m | -44.4m/s | -54.3°C | 0.1% | 0hPa | 0V | 00:00:00 | 00:00:00 | 00:00:00 | |
| LZ4TU-5 | 2026-09-05 00:38:31 | 43.08067 | 20.16164 | 0° | 0km/h | 23518m | -45.4m/s | -52.1°C | 0.0% | 0hPa | 0V | 00:00:00 | 00:00:00 | 00:00:00 | |
| LZ4TU-5 | 2026-09-05 00:38:25 | 43.08066 | 20.16165 | 264° | 7km/h | 23794m | -46.6m/s | -51.9°C | 0.0% | 0hPa | 0V | 00:00:00 | 00:00:00 | 00:00:00 | |
| LZ4TU-5 | 2026-09-05 00:38:16 | 43.08054 | 20.16166 | 359° | 5km/h | 24226m | -48.5m/s | -52.2°C | 0.3% | 0hPa | 0V | 00:00:00 | 00:00:00 | 00:00:00 | |
| LZ4TU-5 | 2026-09-05 00:38:06 | 43.08030 | 20.16171 | 339° | 11km/h | 24711m | -51.2m/s | -49.7°C | 0.0% | 0hPa | 0V | 00:00:00 | 00:00:00 | 00:00:00 | |
| LZ4TU-5 | 2026-09-05 00:37:58 | 43.08007 | 20.16162 | 13° | 13km/h | 25128m | -53.8m/s | -49.9°C | 0.3% | 0hPa | 0V | 00:00:00 | 00:00:00 | 00:00:00 | |
| LZ4TU-5 | 2026-09-05 00:37:49 | 43.07990 | 20.16132 | 84° | 5km/h | 25594m | -55.7m/s | -48.5°C | 0.2% | 0hPa | 0V | 00:00:00 | 00:00:00 | 00:00:00 | |
| LZ4TU-5 | 2026-09-05 00:36:13 | 43.08153 | 20.16234 | 236° | 7km/h | 30081m | 6.4m/s | -45.4°C | 0.0% | 0hPa | 0V | 00:00:00 | 00:00:00 | 00:00:00 | |
| LZ4TU-5 | 2026-09-05 00:36:08 | 43.08163 | 20.16245 | 200° | 15km/h | 30047m | 6.7m/s | -45.3°C | 0.0% | 0hPa | 0V | 00:00:00 | 00:00:00 | 00:00:00 | |
| LZ4TU-5 | 2026-09-05 00:34:36 | 43.08219 | 20.16348 | 217° | 37km/h | 29417m | 8.9m/s | -45.2°C | 0.0% | 0hPa | 0V | 00:00:00 | 00:00:00 | 00:00:00 | |
| LZ4TU-5 | 2026-09-05 00:34:32 | 43.08221 | 20.16390 | 337° | 9km/h | 29382m | 8.1m/s | -45.4°C | 0.0% | 0hPa | 0V | 00:00:00 | 00:00:00 | 00:00:00 | |
| LZ4TU-5 | 2026-09-05 00:34:26 | 43.08232 | 20.16375 | 205° | 22km/h | 29348m | 6.9m/s | -45.7°C | 0.0% | 0hPa | 0V | 00:00:00 | 00:00:00 | 00:00:00 | |
| LZ4TU-5 | 2026-09-05 00:31:35 | 43.07917 | 20.16733 | 277° | 26km/h | 28201m | 5.9m/s | -47.3°C | 0.1% | 0hPa | 0V | 00:00:00 | 00:00:00 | 00:00:00 | |
| LZ4TU-5 | 2026-09-05 00:31:30 | 43.07921 | 20.16759 | 355° | 7km/h | 28167m | 6.2m/s | -47.4°C | 0.1% | 0hPa | 0V | 00:00:00 | 00:00:00 | 00:00:00 | |
| LZ4TU-5 | 2026-09-05 00:31:26 | 43.07914 | 20.16760 | 346° | 11km/h | 28137m | 8.5m/s | -47.4°C | 0.2% | 0hPa | 0V | 00:00:00 | 00:00:00 | 00:00:00 | |
| LZ4TU-5 | 2026-09-05 00:29:48 | 43.07936 | 20.16943 | 124° | 9km/h | 27469m | 5.8m/s | -47.3°C | 0.1% | 0hPa | 0V | 00:00:00 | 00:00:00 | 00:00:00 | |
| LZ4TU-5 | 2026-09-05 00:29:44 | 43.07958 | 20.16949 | 204° | 33km/h | 27442m | 4.7m/s | -47.4°C | 0.1% | 0hPa | 0V | 00:00:00 | 00:00:00 | 00:00:00 | |
| LZ4TU-5 | 2026-09-05 00:27:54 | 43.08189 | 20.16901 | 128° | 11km/h | 26693m | 7.7m/s | -47.2°C | 0.2% | 0hPa | 0V | 00:00:00 | 00:00:00 | 00:00:00 | |
| LZ4TU-5 | 2026-09-05 00:27:50 | 43.08193 | 20.16892 | 123° | 16km/h | 26668m | 6.0m/s | -47.0°C | 0.1% | 0hPa | 0V | 00:00:00 | 00:00:00 | 00:00:00 | |
| LZ4TU-5 | 2026-09-05 00:26:10 | 43.08248 | 20.16394 | 68° | 29km/h | 25984m | 6.5m/s | -48.3°C | 0.1% | 0hPa | 0V | 00:00:00 | 00:00:00 | 00:00:00 | |
| LZ4TU-5 | 2026-09-05 00:26:06 | 43.08242 | 20.16383 | 0° | 0km/h | 25956m | 7.6m/s | -48.3°C | 0.1% | 0hPa | 0V | 00:00:00 | 00:00:00 | 00:00:00 | |
| LZ4TU-5 | 2026-09-05 00:24:18 | 43.08080 | 20.16040 | 10° | 27km/h | 25256m | 5.8m/s | -50.4°C | 0.3% | 0hPa | 0V | 00:00:00 | 00:00:00 | 00:00:00 | |
| LZ4TU-5 | 2026-09-05 00:24:13 | 43.08056 | 20.16033 | 338° | 11km/h | 25224m | 6.2m/s | -50.6°C | 0.3% | 0hPa | 0V | 00:00:00 | 00:00:00 | 00:00:00 | |
| LZ4TU-5 | 2026-09-05 00:22:32 | 43.07770 | 20.16335 | 346° | 9km/h | 24584m | 4.5m/s | -51.3°C | 0.1% | 0hPa | 0V | 00:00:00 | 00:00:00 | 00:00:00 | |
| LZ4TU-5 | 2026-09-05 00:22:28 | 43.07757 | 20.16353 | 304° | 24km/h | 24560m | 5.6m/s | -51.5°C | 0.1% | 0hPa | 0V | 00:00:00 | 00:00:00 | 00:00:00 | |
| LZ4TU-5 | 2026-09-05 00:20:47 | 43.07588 | 20.16419 | 196° | 15km/h | 23926m | 6.4m/s | -53.6°C | 0.6% | 0hPa | 0V | 00:00:00 | 00:00:00 | 00:00:00 | |
| LZ4TU-5 | 2026-09-05 00:20:42 | 43.07611 | 20.16440 | 249° | 24km/h | 23894m | 7.0m/s | -53.5°C | 0.6% | 0hPa | 0V | 00:00:00 | 00:00:00 | 00:00:00 | |
| LZ4TU-5 | 2026-09-05 00:19:02 | 43.07659 | 20.16423 | 97° | 15km/h | 23277m | 4.8m/s | -55.3°C | 0.7% | 0hPa | 0V | 00:00:00 | 00:00:00 | 00:00:00 | |
| LZ4TU-5 | 2026-09-05 00:18:57 | 43.07642 | 20.16399 | 44° | 18km/h | 23245m | 6.2m/s | -55.4°C | 0.7% | 0hPa | 0V | 00:00:00 | 00:00:00 | 00:00:00 | |
| LZ4TU-5 | 2026-09-05 00:17:07 | 43.07538 | 20.16315 | 75° | 7km/h | 22566m | 5.0m/s | -54.7°C | 0.6% | 0hPa | 0V | 00:00:00 | 00:00:00 | 00:00:00 | |
| LZ4TU-5 | 2026-09-05 00:17:02 | 43.07526 | 20.16291 | 29° | 27km/h | 22534m | 6.0m/s | -54.8°C | 0.6% | 0hPa | 0V | 00:00:00 | 00:00:00 | 00:00:00 | |
| LZ4TU-5 | 2026-09-05 00:15:08 | 43.07535 | 20.16323 | 114° | 13km/h | 21832m | 5.1m/s | -56.6°C | 1.1% | 0hPa | 0V | 00:00:00 | 00:00:00 | 00:00:00 | |
| LZ4TU-5 | 2026-09-05 00:15:04 | 43.07547 | 20.16310 | 155° | 11km/h | 21808m | 6.3m/s | -56.5°C | 1.0% | 0hPa | 0V | 00:00:00 | 00:00:00 | 00:00:00 | |
| LZ4TU-5 | 2026-09-05 00:14:59 | 43.07550 | 20.16302 | 146° | 7km/h | 21778m | 5.2m/s | -56.4°C | 1.0% | 0hPa | 0V | 00:00:00 | 00:00:00 | 00:00:00 | |
| LZ4TU-5 | 2026-09-05 00:14:54 | 43.07557 | 20.16291 | 118° | 11km/h | 21749m | 3.4m/s | -56.3°C | 1.0% | 0hPa | 0V | 00:00:00 | 00:00:00 | 00:00:00 | |
| LZ4TU-5 | 2026-09-05 00:13:06 | 43.07387 | 20.16539 | 241° | 20km/h | 21106m | 8.4m/s | -55.8°C | 1.3% | 0hPa | 0V | 00:00:00 | 00:00:00 | 00:00:00 | |
| LZ4TU-5 | 2026-09-05 00:13:02 | 43.07399 | 20.16558 | 266° | 11km/h | 21082m | 5.0m/s | -55.9°C | 1.3% | 0hPa | 0V | 00:00:00 | 00:00:00 | 00:00:00 | |
| LZ4TU-5 | 2026-09-05 00:11:21 | 43.07666 | 20.16252 | 118° | 22km/h | 20465m | 7.3m/s | -55.2°C | 1.3% | 0hPa | 0V | 00:00:00 | 00:00:00 | 00:00:00 | |
| LZ4TU-5 | 2026-09-05 00:11:16 | 43.07679 | 20.16228 | 146° | 31km/h | 20437m | 5.1m/s | -55.5°C | 1.3% | 0hPa | 0V | 00:00:00 | 00:00:00 | 00:00:00 | |
| LZ4TU-5 | 2026-09-05 00:09:38 | 43.07771 | 20.15368 | 149° | 5km/h | 19871m | 5.9m/s | -57.2°C | 1.6% | 0hPa | 0V | 00:00:00 | 00:00:00 | 00:00:00 | |
| LZ4TU-5 | 2026-09-05 00:09:33 | 43.07776 | 20.15340 | 90° | 24km/h | 19843m | 6.3m/s | -57.4°C | 1.6% | 0hPa | 0V | 00:00:00 | 00:00:00 | 00:00:00 | |
| LZ4TU-5 | 2026-09-05 00:06:09 | 43.07415 | 20.14499 | 332° | 9km/h | 18660m | 4.3m/s | -57.0°C | 2.6% | 0hPa | 0V | 00:00:00 | 00:00:00 | 00:00:00 | |
| LZ4TU-5 | 2026-09-05 00:06:05 | 43.07409 | 20.14502 | 57° | 7km/h | 18639m | 4.9m/s | -56.9°C | 2.6% | 0hPa | 0V | 00:00:00 | 00:00:00 | 00:00:00 | |
| LZ4TU-5 | 2026-09-05 00:04:23 | 43.07410 | 20.13990 | 151° | 16km/h | 18063m | 4.2m/s | -60.0°C | 3.2% | 0hPa | 0V | 00:00:00 | 00:00:00 | 00:00:00 | |
| LZ4TU-5 | 2026-09-05 00:04:18 | 43.07418 | 20.13953 | 92° | 35km/h | 18034m | 5.7m/s | -60.1°C | 3.2% | 0hPa | 0V | 00:00:00 | 00:00:00 | 00:00:00 | |
| LZ4TU-5 | 2026-09-05 00:02:42 | 43.07103 | 20.13269 | 360° | 27km/h | 17457m | 6.5m/s | -60.5°C | 4.1% | 0hPa | 0V | 00:00:00 | 00:00:00 | 00:00:00 | |
| LZ4TU-5 | 2026-09-05 00:02:36 | 43.07084 | 20.13264 | 14° | 18km/h | 17436m | 4.2m/s | -60.3°C | 4.1% | 0hPa | 0V | 00:00:00 | 00:00:00 | 00:00:00 | |
| LZ4TU-5 | 2026-09-05 00:02:30 | 43.07041 | 20.13263 | 347° | 29km/h | 17408m | 2.4m/s | -60.1°C | 4.2% | 0hPa | 0V | 00:00:00 | 00:00:00 | 00:00:00 | |
| LZ4TU-5 | 2026-09-05 00:02:25 | 43.07038 | 20.13245 | 110° | 20km/h | 17375m | 3.9m/s | -59.8°C | 4.4% | 0hPa | 0V | 00:00:00 | 00:00:00 | 00:00:00 | |
| LZ4TU-5 | 2026-09-05 00:00:40 | 43.07252 | 20.12781 | 114° | 57km/h | 16734m | 5.7m/s | -61.3°C | 5.6% | 0hPa | 0V | 00:00:00 | 00:00:00 | 00:00:00 | |
| LZ4TU-5 | 2026-09-05 00:00:37 | 43.07282 | 20.12724 | 126° | 27km/h | 16707m | 5.0m/s | -61.2°C | 0% | 0hPa | 0V | 00:00:00 | 00:00:00 | 00:00:00 | |
| LZ4TU-5 | 2026-09-04 23:58:53 | 43.07462 | 20.11631 | 96° | 44km/h | 16117m | 6.5m/s | -61.2°C | 7.2% | 0hPa | 0V | 00:00:00 | 00:00:00 | 00:00:00 | |
| LZ4TU-5 | 2026-09-04 23:58:48 | 43.07465 | 20.11551 | 91° | 40km/h | 16089m | 5.0m/s | -61.0°C | 7.3% | 0hPa | 0V | 00:00:00 | 00:00:00 | 00:00:00 | |
| LZ4TU-5 | 2026-09-04 23:57:11 | 43.07545 | 20.10711 | 88° | 4km/h | 15555m | 4.1m/s | -60.8°C | 10.6% | 0hPa | 0V | 00:00:00 | 00:00:00 | 00:00:00 | |
| LZ4TU-5 | 2026-09-04 23:57:06 | 43.07544 | 20.10678 | 112° | 22km/h | 15526m | 6.0m/s | -60.6°C | 10.8% | 0hPa | 0V | 00:00:00 | 00:00:00 | 00:00:00 | |
| LZ4TU-5 | 2026-09-04 23:55:27 | 43.08199 | 20.10067 | 129° | 49km/h | 14945m | 6.4m/s | -62.8°C | 17.1% | 0hPa | 0V | 00:00:00 | 00:00:00 | 00:00:00 | |
| LZ4TU-5 | 2026-09-04 23:55:22 | 43.08230 | 20.10001 | 125° | 37km/h | 14915m | 6.0m/s | -62.8°C | 17.7% | 0hPa | 0V | 00:00:00 | 00:00:00 | 00:00:00 | |
| LZ4TU-5 | 2026-09-04 23:53:43 | 43.08804 | 20.09255 | 160° | 26km/h | 14321m | 4.0m/s | -62.0°C | 33.4% | 0hPa | 0V | 00:00:00 | 00:00:00 | 00:00:00 | |
| LZ4TU-5 | 2026-09-04 23:53:38 | 43.08836 | 20.09250 | 177° | 27km/h | 14298m | 6.0m/s | -62.1°C | 34.2% | 0hPa | 0V | 00:00:00 | 00:00:00 | 00:00:00 | |
| LZ4TU-5 | 2026-09-04 23:51:56 | 43.09835 | 20.08896 | 172° | 53km/h | 13669m | 6.1m/s | -66.4°C | 42.1% | 0hPa | 0V | 00:00:00 | 00:00:00 | 00:00:00 | |
| LZ4TU-5 | 2026-09-04 23:51:52 | 43.09886 | 20.08888 | 179° | 55km/h | 13648m | 6.3m/s | -66.4°C | 41.7% | 0hPa | 0V | 00:00:00 | 00:00:00 | 00:00:00 | |
| LZ4TU-5 | 2026-09-04 23:50:11 | 43.10974 | 20.08042 | 153° | 42km/h | 12991m | 6.6m/s | -61.7°C | 35.2% | 0hPa | 0V | 00:00:00 | 00:00:00 | 00:00:00 | |
| LZ4TU-5 | 2026-09-04 23:50:06 | 43.11029 | 20.08007 | 155° | 55km/h | 12964m | 6.6m/s | -61.5°C | 35.1% | 0hPa | 0V | 00:00:00 | 00:00:00 | 00:00:00 | |
| LZ4TU-5 | 2026-09-04 23:48:25 | 43.11999 | 20.07156 | 138° | 47km/h | 12342m | 7.3m/s | -57.3°C | 34.7% | 0hPa | 0V | 00:00:00 | 00:00:00 | 00:00:00 | |
| LZ4TU-5 | 2026-09-04 23:48:21 | 43.12042 | 20.07106 | 152° | 62km/h | 12319m | 5.2m/s | -57.2°C | 34.3% | 0hPa | 0V | 00:00:00 | 00:00:00 | 00:00:00 | |
| LZ4TU-5 | 2026-09-04 23:46:38 | 43.13109 | 20.06329 | 159° | 47km/h | 11695m | 4.9m/s | -51.8°C | 27.1% | 0hPa | 0V | 00:00:00 | 00:00:00 | 00:00:00 | |
| LZ4TU-5 | 2026-09-04 23:46:33 | 43.13156 | 20.06286 | 146° | 47km/h | 11667m | 6.0m/s | -51.6°C | 27.9% | 0hPa | 0V | 00:00:00 | 00:00:00 | 00:00:00 | |
| LZ4TU-5 | 2026-09-04 23:44:53 | 43.14289 | 20.05736 | 149° | 38km/h | 11037m | 7.6m/s | -46.7°C | 32.2% | 0hPa | 0V | 00:00:00 | 00:00:00 | 00:00:00 | |
| LZ4TU-5 | 2026-09-04 23:44:48 | 43.14349 | 20.05715 | 176° | 46km/h | 11003m | 6.3m/s | -46.3°C | 32.1% | 0hPa | 0V | 00:00:00 | 00:00:00 | 00:00:00 | |
| LZ4TU-5 | 2026-09-04 23:42:55 | 43.15511 | 20.04974 | 182° | 26km/h | 10349m | 7.2m/s | -40.8°C | 19.6% | 0hPa | 0V | 00:00:00 | 00:00:00 | 00:00:00 | |
| LZ4TU-5 | 2026-09-04 23:42:50 | 43.15554 | 20.04930 | 134° | 62km/h | 10320m | 5.9m/s | -40.6°C | 19.0% | 0hPa | 0V | 00:00:00 | 00:00:00 | 00:00:00 | |
| LZ4TU-5 | 2026-09-04 23:41:27 | 43.16336 | 20.04220 | 146° | 42km/h | 9840m | 5.5m/s | -36.3°C | 12.8% | 0hPa | 0V | 00:00:00 | 00:00:00 | 00:00:00 | |
| LZ4TU-5 | 2026-09-04 23:41:23 | 43.16367 | 20.04183 | 148° | 38km/h | 9819m | 5.9m/s | -36.1°C | 12.7% | 0hPa | 0V | 00:00:00 | 00:00:00 | 00:00:00 | |
| LZ4TU-5 | 2026-09-04 23:40:00 | 43.17192 | 20.03365 | 125° | 62km/h | 9362m | 3.6m/s | -32.4°C | 12.2% | 0hPa | 0V | 00:00:00 | 00:00:00 | 00:00:00 | |
| LZ4TU-5 | 2026-09-04 23:39:56 | 43.17229 | 20.03312 | 157° | 44km/h | 9345m | 4.5m/s | -32.3°C | 12.2% | 0hPa | 0V | 00:00:00 | 00:00:00 | 00:00:00 |